Minerva Astra — 9HDW7 — position and weather

sailwx.info

Track history (hours):
 
Tides and Currents Weather Stations Pressure Air Temp Water Temp Dewpoint Dewpoint Depression Visibility Wind Speed Wind Dir Waves Ship Positions

Minerva Astra

Last reported at 2016-Jun-27 21:32 UTC. Time now 2016-Jun-27 22:20 UTC.
Position N 44°42' E 037°50'.

Length 248 m; draft 8.5 m.

Type: Tanker. MMSI: 256703000.

Date/timePositionNaut miles runAvg speedWind from/ knotsBaromVisibWave heightAir tempDewpointWater temp
2016-Jun-27 21:32N 44°42' E 037°50'0 0.0
2016-Jun-27 20:31N 44°42' E 037°50'0 0.0
2016-Jun-27 19:32N 44°42' E 037°50'0 0.0
2016-Jun-27 18:32N 44°42' E 037°50'0 0.0
2016-Jun-27 17:31N 44°42' E 037°50'0 0.0
2016-Jun-27 16:31N 44°42' E 037°50'0 0.0
2016-Jun-27 15:32N 44°42' E 037°50'0 0.0
2016-Jun-27 14:31N 44°42' E 037°50'0 0.0
2016-Jun-27 13:31N 44°42' E 037°50'0 0.0
2016-Jun-27 12:31N 44°42' E 037°50'0 0.0
2016-Jun-27 11:31N 44°42' E 037°50'0 0.0
2016-Jun-27 10:31N 44°42' E 037°50'0 0.0
2016-Jun-27 09:32N 44°42' E 037°50'0 0.0
2016-Jun-27 08:31N 44°42' E 037°50'0 0.0
2016-Jun-27 07:31N 44°42' E 037°50'0 0.5
2016-Jun-27 06:34N 44°42' E 037°50'6 6.3
2016-Jun-27 05:33N 44°36' E 037°51'8 8.2
2016-Jun-27 04:33N 44°30' E 037°43'1313.2
2016-Jun-27 03:33N 44°27' E 037°25'6 5.9
2016-Jun-27 02:33N 44°25' E 037°17'0 0.1
2016-Jun-26 23:29N 44°25' E 037°16'0 0.3
2016-Jun-26 22:24N 44°25' E 037°17'0 0.4
2016-Jun-26 21:31N 44°25' E 037°17'1 0.3
2016-Jun-26 17:28N 44°24' E 037°19'6 6.8
2016-Jun-26 16:33N 44°23' E 037°10'1413.8
2016-Jun-26 15:33N 44°21' E 036°51'19 3.5
2016-Jun-26 10:14N 44°19' E 036°25'0 0.3
2016-Jun-26 09:33N 44°19' E 036°25'2 0.5
2016-Jun-26 06:05N 44°17' E 036°27'1 0.7
2016-Jun-26 04:33N 44°17' E 036°28'1 0.8
2016-Jun-26 03:33N 44°17' E 036°29'1 0.9
2016-Jun-26 02:33N 44°17' E 036°30'5 1.0
2016-Jun-25 21:20N 44°19' E 036°37'1 0.9
2016-Jun-25 20:34N 44°20' E 036°38'1 0.8
2016-Jun-25 19:33N 44°20' E 036°39'1 0.7
2016-Jun-25 18:31N 44°20' E 036°40'0 0.5
2016-Jun-25 17:33N 44°21' E 036°40'9 0.7
2016-Jun-25 04:33N 44°19' E 036°53'1 0.9
2016-Jun-25 03:19N 44°20' E 036°55'1 0.8
2016-Jun-25 02:33N 44°20' E 036°56'1 0.7
2016-Jun-25 00:31N 44°20' E 036°58'6 0.6
2016-Jun-24 13:15N 44°21' E 037°07'5 0.9
2016-Jun-24 07:23N 44°24' E 037°13'1 0.7
2016-Jun-24 06:23N 44°24' E 037°13'1 0.4
2016-Jun-24 04:34N 44°25' E 037°14'0 0.2
2016-Jun-24 03:33N 44°25' E 037°14'0 0.4
2016-Jun-24 02:34N 44°24' E 037°14'4 0.9
2016-Jun-23 22:18N 44°21' E 037°18'1 1.2
2016-Jun-23 21:20N 44°21' E 037°19'3 1.7
2016-Jun-23 19:31N 44°20' E 037°23'1 1.3
2016-Jun-23 18:22N 44°20' E 037°25'2 2.0
2016-Jun-23 17:08N 44°20' E 037°29'1 2.3
2016-Jun-23 16:33N 44°20' E 037°31'2 1.9
2016-Jun-23 15:33N 44°20' E 037°33'1 1.3
2016-Jun-23 14:33N 44°21' E 037°35'0 0.3
2016-Jun-23 13:34N 44°21' E 037°35'0 0.3
2016-Jun-23 12:34N 44°21' E 037°35'0 0.1
2016-Jun-23 11:34N 44°21' E 037°36'0 0.3
2016-Jun-23 10:33N 44°21' E 037°36'0 0.4
2016-Jun-23 09:33N 44°21' E 037°37'0 0.5
2016-Jun-23 08:33N 44°21' E 037°37'0 0.4
2016-Jun-23 07:34N 44°21' E 037°38'1 0.5
2016-Jun-23 05:33N 44°20' E 037°39'1 0.7
2016-Jun-23 04:33N 44°19' E 037°39'1 0.7
2016-Jun-23 03:33N 44°19' E 037°40'1 0.7
2016-Jun-23 02:33N 44°19' E 037°41'1 0.6
2016-Jun-23 01:33N 44°19' E 037°42'1 0.5
2016-Jun-23 00:33N 44°19' E 037°43'0 0.4
2016-Jun-22 23:33N 44°19' E 037°43'0 0.3
2016-Jun-22 22:34N 44°19' E 037°44'0 0.3
2016-Jun-22 21:32N 44°19' E 037°44'0 0.2
2016-Jun-22 20:30N 44°19' E 037°44'0 0.3
2016-Jun-22 19:34N 44°19' E 037°45'1 0.3
2016-Jun-22 17:33N 44°18' E 037°45'0 0.4
2016-Jun-22 16:33N 44°18' E 037°45'0 0.2
2016-Jun-22 15:13N 44°18' E 037°45'0 0.2
2016-Jun-22 14:30N 44°18' E 037°46'0 0.3
2016-Jun-22 13:33N 44°18' E 037°46'0 0.5
2016-Jun-22 12:34N 44°18' E 037°47'5 4.9
2016-Jun-22 11:33N 44°13' E 037°47'1111.0
2016-Jun-22 10:33N 44°02' E 037°44'1110.9
2016-Jun-22 09:33N 43°51' E 037°42'1111.2
2016-Jun-22 08:32N 43°40' E 037°40'5 2.4
2016-Jun-22 06:31N 43°35' E 037°38'1 0.3
2016-Jun-22 02:33N 43°34' E 037°38'1 0.6
2016-Jun-22 01:30N 43°33' E 037°38'1 0.8
2016-Jun-22 00:28N 43°33' E 037°39'2 0.8
2016-Jun-21 22:29N 43°32' E 037°41'1 0.7
2016-Jun-21 21:28N 43°32' E 037°42'1 0.7
2016-Jun-21 20:34N 43°32' E 037°43'1 0.8
2016-Jun-21 19:33N 43°32' E 037°44'1 0.7
2016-Jun-21 18:16N 43°33' E 037°45'2 0.2
2016-Jun-21 10:26N 43°35' E 037°45'0 0.3
2016-Jun-21 09:18N 43°35' E 037°46'1 0.4
2016-Jun-21 07:25N 43°34' E 037°47'6 0.4
2016-Jun-20 17:08N 43°34' E 037°55'0 0.3
2016-Jun-20 16:30N 43°34' E 037°55'2 0.2
2016-Jun-20 08:34N 43°35' E 037°57'1 0.4
2016-Jun-20 06:12N 43°35' E 037°58'0 0.5
2016-Jun-20 05:19N 43°35' E 037°59'7 0.2
2016-Jun-18 19:34N 43°35' E 038°09'0 0.2
2016-Jun-18 18:31N 43°35' E 038°10'0 0.2
2016-Jun-18 17:32N 43°35' E 038°10'0 0.2
2016-Jun-18 16:19N 43°35' E 038°10'  
Track history (hours):
 
Tides and Currents Weather Stations Pressure Air Temp Water Temp Dewpoint Dewpoint Depression Visibility Wind Speed Wind Dir Waves Ship Positions

Minerva Astra

Last reported at 2016-Jun-27 21:32 UTC. Time now 2016-Jun-27 22:20 UTC.
Position N 44°42' E 037°50'.

Length 248 m; draft 8.5 m.

Type: Tanker. MMSI: 256703000.

Date/timePositionNaut miles runAvg speedWind from/ knotsBaromVisibWave heightAir tempDewpointWater temp
2016-Jun-27 21:32N 44°42' E 037°50'0 0.0
2016-Jun-27 20:31N 44°42' E 037°50'0 0.0
2016-Jun-27 19:32N 44°42' E 037°50'0 0.0
2016-Jun-27 18:32N 44°42' E 037°50'0 0.0
2016-Jun-27 17:31N 44°42' E 037°50'0 0.0
2016-Jun-27 16:31N 44°42' E 037°50'0 0.0
2016-Jun-27 15:32N 44°42' E 037°50'0 0.0
2016-Jun-27 14:31N 44°42' E 037°50'0 0.0
2016-Jun-27 13:31N 44°42' E 037°50'0 0.0
2016-Jun-27 12:31N 44°42' E 037°50'0 0.0
2016-Jun-27 11:31N 44°42' E 037°50'0 0.0
2016-Jun-27 10:31N 44°42' E 037°50'0 0.0
2016-Jun-27 09:32N 44°42' E 037°50'0 0.0
2016-Jun-27 08:31N 44°42' E 037°50'0 0.0
2016-Jun-27 07:31N 44°42' E 037°50'0 0.5
2016-Jun-27 06:34N 44°42' E 037°50'6 6.3
2016-Jun-27 05:33N 44°36' E 037°51'8 8.2
2016-Jun-27 04:33N 44°30' E 037°43'1313.2
2016-Jun-27 03:33N 44°27' E 037°25'6 5.9
2016-Jun-27 02:33N 44°25' E 037°17'0 0.1
2016-Jun-26 23:29N 44°25' E 037°16'0 0.3
2016-Jun-26 22:24N 44°25' E 037°17'0 0.4
2016-Jun-26 21:31N 44°25' E 037°17'1 0.3
2016-Jun-26 17:28N 44°24' E 037°19'6 6.8
2016-Jun-26 16:33N 44°23' E 037°10'1413.8
2016-Jun-26 15:33N 44°21' E 036°51'19 3.5
2016-Jun-26 10:14N 44°19' E 036°25'0 0.3
2016-Jun-26 09:33N 44°19' E 036°25'2 0.5
2016-Jun-26 06:05N 44°17' E 036°27'1 0.7
2016-Jun-26 04:33N 44°17' E 036°28'1 0.8
2016-Jun-26 03:33N 44°17' E 036°29'1 0.9
2016-Jun-26 02:33N 44°17' E 036°30'5 1.0
2016-Jun-25 21:20N 44°19' E 036°37'1 0.9
2016-Jun-25 20:34N 44°20' E 036°38'1 0.8
2016-Jun-25 19:33N 44°20' E 036°39'1 0.7
2016-Jun-25 18:31N 44°20' E 036°40'0 0.5
2016-Jun-25 17:33N 44°21' E 036°40'9 0.7
2016-Jun-25 04:33N 44°19' E 036°53'1 0.9
2016-Jun-25 03:19N 44°20' E 036°55'1 0.8
2016-Jun-25 02:33N 44°20' E 036°56'1 0.7
2016-Jun-25 00:31N 44°20' E 036°58'6 0.6
2016-Jun-24 13:15N 44°21' E 037°07'5 0.9
2016-Jun-24 07:23N 44°24' E 037°13'1 0.7
2016-Jun-24 06:23N 44°24' E 037°13'1 0.4
2016-Jun-24 04:34N 44°25' E 037°14'0 0.2
2016-Jun-24 03:33N 44°25' E 037°14'0 0.4
2016-Jun-24 02:34N 44°24' E 037°14'4 0.9
2016-Jun-23 22:18N 44°21' E 037°18'1 1.2
2016-Jun-23 21:20N 44°21' E 037°19'3 1.7
2016-Jun-23 19:31N 44°20' E 037°23'1 1.3
2016-Jun-23 18:22N 44°20' E 037°25'2 2.0
2016-Jun-23 17:08N 44°20' E 037°29'1 2.3
2016-Jun-23 16:33N 44°20' E 037°31'2 1.9
2016-Jun-23 15:33N 44°20' E 037°33'1 1.3
2016-Jun-23 14:33N 44°21' E 037°35'0 0.3
2016-Jun-23 13:34N 44°21' E 037°35'0 0.3
2016-Jun-23 12:34N 44°21' E 037°35'0 0.1
2016-Jun-23 11:34N 44°21' E 037°36'0 0.3
2016-Jun-23 10:33N 44°21' E 037°36'0 0.4
2016-Jun-23 09:33N 44°21' E 037°37'0 0.5
2016-Jun-23 08:33N 44°21' E 037°37'0 0.4
2016-Jun-23 07:34N 44°21' E 037°38'1 0.5
2016-Jun-23 05:33N 44°20' E 037°39'1 0.7
2016-Jun-23 04:33N 44°19' E 037°39'1 0.7
2016-Jun-23 03:33N 44°19' E 037°40'1 0.7
2016-Jun-23 02:33N 44°19' E 037°41'1 0.6
2016-Jun-23 01:33N 44°19' E 037°42'1 0.5
2016-Jun-23 00:33N 44°19' E 037°43'0 0.4
2016-Jun-22 23:33N 44°19' E 037°43'0 0.3
2016-Jun-22 22:34N 44°19' E 037°44'0 0.3
2016-Jun-22 21:32N 44°19' E 037°44'0 0.2
2016-Jun-22 20:30N 44°19' E 037°44'0 0.3
2016-Jun-22 19:34N 44°19' E 037°45'1 0.3
2016-Jun-22 17:33N 44°18' E 037°45'0 0.4
2016-Jun-22 16:33N 44°18' E 037°45'0 0.2
2016-Jun-22 15:13N 44°18' E 037°45'0 0.2
2016-Jun-22 14:30N 44°18' E 037°46'0 0.3
2016-Jun-22 13:33N 44°18' E 037°46'0 0.5
2016-Jun-22 12:34N 44°18' E 037°47'5 4.9
2016-Jun-22 11:33N 44°13' E 037°47'1111.0
2016-Jun-22 10:33N 44°02' E 037°44'1110.9
2016-Jun-22 09:33N 43°51' E 037°42'1111.2
2016-Jun-22 08:32N 43°40' E 037°40'5 2.4
2016-Jun-22 06:31N 43°35' E 037°38'1 0.3
2016-Jun-22 02:33N 43°34' E 037°38'1 0.6
2016-Jun-22 01:30N 43°33' E 037°38'1 0.8
2016-Jun-22 00:28N 43°33' E 037°39'2 0.8
2016-Jun-21 22:29N 43°32' E 037°41'1 0.7
2016-Jun-21 21:28N 43°32' E 037°42'1 0.7
2016-Jun-21 20:34N 43°32' E 037°43'1 0.8
2016-Jun-21 19:33N 43°32' E 037°44'1 0.7
2016-Jun-21 18:16N 43°33' E 037°45'2 0.2
2016-Jun-21 10:26N 43°35' E 037°45'0 0.3
2016-Jun-21 09:18N 43°35' E 037°46'1 0.4
2016-Jun-21 07:25N 43°34' E 037°47'6 0.4
2016-Jun-20 17:08N 43°34' E 037°55'0 0.3
2016-Jun-20 16:30N 43°34' E 037°55'2 0.2
2016-Jun-20 08:34N 43°35' E 037°57'1 0.4
2016-Jun-20 06:12N 43°35' E 037°58'0 0.5
2016-Jun-20 05:19N 43°35' E 037°59'7 0.2
2016-Jun-18 19:34N 43°35' E 038°09'0 0.2
2016-Jun-18 18:31N 43°35' E 038°10'0 0.2
2016-Jun-18 17:32N 43°35' E 038°10'0 0.2
2016-Jun-18 16:19N 43°35' E 038°10'  

Dump ship's entire track history